Parker, Idaho
Current Conditions -  °F | °C
As of 4:53 PM on Friday 24 Oct 2014 (Local Time) from KRXE Reporting Station
Clear Clear  
Wind Chill: 68°   Ceiling: Unl
Heat Index: 68°   Visibility: 10mi
Dew Point: 29°   Wind: 15mph
Humidity: 23%   Direction: 220°SW
Pressure: 30.09"   Gusts: 23mph
Location:  43.96°N, 111.76°W
Report Text: KRXE 242253Z AUTO 22013G20KT 10SM CLR 20/M02 A3009 RMK AO2 SLP160 T02001017
Loading
Personal Weather Stations






























Interactive Weather Map
Tropical Storm Tracking
New forecast layout! Learn more

10-Day Weather Forecast

Advertisements
Track Severe Weather on mobile